sensor_id;sensor_type;location;lat;lon;timestamp;temperature;humidity
33811;DHT22;20119;48.334;16.206;2023-03-24T00:00:35;12.10;99.90
33811;DHT22;20119;48.334;16.206;2023-03-24T00:03:03;12.10;99.90
33811;DHT22;20119;48.334;16.206;2023-03-24T00:05:31;12.00;99.90
33811;DHT22;20119;48.334;16.206;2023-03-24T00:07:58;12.00;99.90
33811;DHT22;20119;48.334;16.206;2023-03-24T00:10:29;11.90;99.90
33811;DHT22;20119;48.334;16.206;2023-03-24T00:12:59;11.90;99.90
33811;DHT22;20119;48.334;16.206;2023-03-24T00:15:27;11.90;99.90
33811;DHT22;20119;48.334;16.206;2023-03-24T00:17:54;11.70;99.90
33811;DHT22;20119;48.334;16.206;2023-03-24T00:20:24;11.70;99.90
33811;DHT22;20119;48.334;16.206;2023-03-24T00:22:53;11.60;99.90
33811;DHT22;20119;48.334;16.206;2023-03-24T00:25:25;11.50;99.90
33811;DHT22;20119;48.334;16.206;2023-03-24T00:27:55;11.50;99.90
33811;DHT22;20119;48.334;16.206;2023-03-24T00:30:23;11.50;99.90
33811;DHT22;20119;48.334;16.206;2023-03-24T00:32:52;11.40;99.90
33811;DHT22;20119;48.334;16.206;2023-03-24T00:35:20;11.40;99.90
33811;DHT22;20119;48.334;16.206;2023-03-24T00:37:48;11.30;99.90
33811;DHT22;20119;48.334;16.206;2023-03-24T00:40:18;11.30;99.90
33811;DHT22;20119;48.334;16.206;2023-03-24T00:42:47;11.30;99.90
33811;DHT22;20119;48.334;16.206;2023-03-24T00:45:20;11.30;99.90
33811;DHT22;20119;48.334;16.206;2023-03-24T00:47:48;11.30;99.90
33811;DHT22;20119;48.334;16.206;2023-03-24T00:50:19;11.30;99.90
33811;DHT22;20119;48.334;16.206;2023-03-24T00:52:51;11.30;99.90
33811;DHT22;20119;48.334;16.206;2023-03-24T00:55:19;11.30;99.90
33811;DHT22;20119;48.334;16.206;2023-03-24T00:57:47;11.20;99.90
33811;DHT22;20119;48.334;16.206;2023-03-24T01:00:19;11.10;99.90
33811;DHT22;20119;48.334;16.206;2023-03-24T01:02:50;11.20;99.90
33811;DHT22;20119;48.334;16.206;2023-03-24T01:05:19;11.10;99.90
33811;DHT22;20119;48.334;16.206;2023-03-24T01:07:46;11.10;99.90
33811;DHT22;20119;48.334;16.206;2023-03-24T01:10:18;11.10;99.90
33811;DHT22;20119;48.334;16.206;2023-03-24T01:12:46;11.10;99.90
33811;DHT22;20119;48.334;16.206;2023-03-24T01:15:15;11.10;99.90
33811;DHT22;20119;48.334;16.206;2023-03-24T01:17:44;11.20;99.90
33811;DHT22;20119;48.334;16.206;2023-03-24T01:20:14;11.20;99.90
33811;DHT22;20119;48.334;16.206;2023-03-24T01:22:42;11.20;99.90
33811;DHT22;20119;48.334;16.206;2023-03-24T01:25:11;11.10;99.90
33811;DHT22;20119;48.334;16.206;2023-03-24T01:27:41;11.10;99.90
33811;DHT22;20119;48.334;16.206;2023-03-24T01:30:10;11.10;99.90
33811;DHT22;20119;48.334;16.206;2023-03-24T01:32:39;11.10;99.90
33811;DHT22;20119;48.334;16.206;2023-03-24T01:35:07;11.10;99.90
33811;DHT22;20119;48.334;16.206;2023-03-24T01:37:36;11.10;99.90
33811;DHT22;20119;48.334;16.206;2023-03-24T01:40:04;11.10;99.90
33811;DHT22;20119;48.334;16.206;2023-03-24T01:42:35;11.10;99.90
33811;DHT22;20119;48.334;16.206;2023-03-24T01:45:41;11.10;99.90
33811;DHT22;20119;48.334;16.206;2023-03-24T01:48:11;11.10;99.90
33811;DHT22;20119;48.334;16.206;2023-03-24T01:50:58;11.20;99.90
33811;DHT22;20119;48.334;16.206;2023-03-24T01:53:28;11.10;99.90
33811;DHT22;20119;48.334;16.206;2023-03-24T01:55:56;11.00;99.90
33811;DHT22;20119;48.334;16.206;2023-03-24T01:58:28;11.00;99.90
33811;DHT22;20119;48.334;16.206;2023-03-24T02:00:57;11.00;99.90
33811;DHT22;20119;48.334;16.206;2023-03-24T02:03:26;10.90;99.90
33811;DHT22;20119;48.334;16.206;2023-03-24T02:06:00;10.80;99.90
33811;DHT22;20119;48.334;16.206;2023-03-24T02:08:33;10.80;99.90
33811;DHT22;20119;48.334;16.206;2023-03-24T02:11:02;10.80;99.90
33811;DHT22;20119;48.334;16.206;2023-03-24T02:13:30;10.80;99.90
33811;DHT22;20119;48.334;16.206;2023-03-24T02:16:12;10.80;99.90
33811;DHT22;20119;48.334;16.206;2023-03-24T02:18:49;10.70;99.90
33811;DHT22;20119;48.334;16.206;2023-03-24T02:21:52;10.70;99.90
33811;DHT22;20119;48.334;16.206;2023-03-24T02:27:50;10.80;99.90
33811;DHT22;20119;48.334;16.206;2023-03-24T02:36:38;10.70;99.90
33811;DHT22;20119;48.334;16.206;2023-03-24T02:39:35;10.70;99.90
33811;DHT22;20119;48.334;16.206;2023-03-24T02:42:10;10.70;99.90
33811;DHT22;20119;48.334;16.206;2023-03-24T02:44:49;10.80;99.90
33811;DHT22;20119;48.334;16.206;2023-03-24T02:47:24;10.80;99.90
33811;DHT22;20119;48.334;16.206;2023-03-24T02:49:57;10.70;99.90
33811;DHT22;20119;48.334;16.206;2023-03-24T02:52:33;10.80;99.90
33811;DHT22;20119;48.334;16.206;2023-03-24T02:55:09;10.60;99.90
33811;DHT22;20119;48.334;16.206;2023-03-24T02:57:43;10.70;99.90
33811;DHT22;20119;48.334;16.206;2023-03-24T03:00:16;10.70;99.90
33811;DHT22;20119;48.334;16.206;2023-03-24T03:02:48;10.60;99.90
33811;DHT22;20119;48.334;16.206;2023-03-24T03:05:24;10.60;99.90
33811;DHT22;20119;48.334;16.206;2023-03-24T03:07:56;10.50;99.90
33811;DHT22;20119;48.334;16.206;2023-03-24T03:10:29;10.40;99.90
33811;DHT22;20119;48.334;16.206;2023-03-24T03:12:59;10.40;99.90
33811;DHT22;20119;48.334;16.206;2023-03-24T03:15:28;10.40;99.90
33811;DHT22;20119;48.334;16.206;2023-03-24T03:18:03;10.50;99.90
33811;DHT22;20119;48.334;16.206;2023-03-24T03:20:37;10.50;99.90
33811;DHT22;20119;48.334;16.206;2023-03-24T03:23:11;10.50;99.90
33811;DHT22;20119;48.334;16.206;2023-03-24T03:25:45;10.60;99.90
33811;DHT22;20119;48.334;16.206;2023-03-24T03:28:17;10.60;99.90
33811;DHT22;20119;48.334;16.206;2023-03-24T03:30:50;10.60;99.90
33811;DHT22;20119;48.334;16.206;2023-03-24T03:33:22;10.70;99.90
33811;DHT22;20119;48.334;16.206;2023-03-24T03:35:53;10.70;99.90
33811;DHT22;20119;48.334;16.206;2023-03-24T03:38:27;10.80;99.90
33811;DHT22;20119;48.334;16.206;2023-03-24T03:41:03;10.90;99.90
33811;DHT22;20119;48.334;16.206;2023-03-24T03:43:32;10.90;99.90
33811;DHT22;20119;48.334;16.206;2023-03-24T03:46:00;10.90;99.90
33811;DHT22;20119;48.334;16.206;2023-03-24T03:48:30;10.80;99.90
33811;DHT22;20119;48.334;16.206;2023-03-24T03:50:57;10.80;99.90
33811;DHT22;20119;48.334;16.206;2023-03-24T03:53:29;10.70;99.90
33811;DHT22;20119;48.334;16.206;2023-03-24T03:56:03;10.80;99.90
33811;DHT22;20119;48.334;16.206;2023-03-24T03:58:31;10.80;99.90
33811;DHT22;20119;48.334;16.206;2023-03-24T04:00:59;10.70;99.90
33811;DHT22;20119;48.334;16.206;2023-03-24T04:03:57;10.70;99.90
33811;DHT22;20119;48.334;16.206;2023-03-24T04:06:35;10.70;99.90
33811;DHT22;20119;48.334;16.206;2023-03-24T04:09:20;10.70;99.90
33811;DHT22;20119;48.334;16.206;2023-03-24T04:12:24;10.60;99.90
33811;DHT22;20119;48.334;16.206;2023-03-24T04:15:16;10.60;99.90
33811;DHT22;20119;48.334;16.206;2023-03-24T04:17:59;10.60;99.90
33811;DHT22;20119;48.334;16.206;2023-03-24T04:20:37;10.60;99.90
33811;DHT22;20119;48.334;16.206;2023-03-24T04:23:19;10.70;99.90
33811;DHT22;20119;48.334;16.206;2023-03-24T04:26:01;10.70;99.90
33811;DHT22;20119;48.334;16.206;2023-03-24T04:28:38;10.80;99.90
33811;DHT22;20119;48.334;16.206;2023-03-24T04:31:13;10.90;99.90
33811;DHT22;20119;48.334;16.206;2023-03-24T04:33:46;11.00;99.90
33811;DHT22;20119;48.334;16.206;2023-03-24T04:36:21;11.00;99.90
33811;DHT22;20119;48.334;16.206;2023-03-24T04:38:53;11.00;99.90
33811;DHT22;20119;48.334;16.206;2023-03-24T04:41:25;11.00;99.90
33811;DHT22;20119;48.334;16.206;2023-03-24T04:43:55;11.00;99.90
33811;DHT22;20119;48.334;16.206;2023-03-24T04:46:24;11.10;99.90
33811;DHT22;20119;48.334;16.206;2023-03-24T04:48:52;11.10;99.90
33811;DHT22;20119;48.334;16.206;2023-03-24T04:51:20;11.10;99.90
33811;DHT22;20119;48.334;16.206;2023-03-24T04:53:48;11.00;99.90
33811;DHT22;20119;48.334;16.206;2023-03-24T04:56:26;11.00;99.90
33811;DHT22;20119;48.334;16.206;2023-03-24T04:58:57;11.10;99.90
33811;DHT22;20119;48.334;16.206;2023-03-24T05:01:25;11.10;99.90
33811;DHT22;20119;48.334;16.206;2023-03-24T05:03:54;11.10;99.90
33811;DHT22;20119;48.334;16.206;2023-03-24T05:06:21;11.10;99.90
33811;DHT22;20119;48.334;16.206;2023-03-24T05:08:50;11.10;99.90
33811;DHT22;20119;48.334;16.206;2023-03-24T05:11:18;11.10;99.90
33811;DHT22;20119;48.334;16.206;2023-03-24T05:13:45;11.10;99.90
33811;DHT22;20119;48.334;16.206;2023-03-24T05:16:15;11.10;99.90
33811;DHT22;20119;48.334;16.206;2023-03-24T05:18:43;11.10;99.90
33811;DHT22;20119;48.334;16.206;2023-03-24T05:21:11;11.20;99.90
33811;DHT22;20119;48.334;16.206;2023-03-24T05:23:39;11.20;99.90
33811;DHT22;20119;48.334;16.206;2023-03-24T05:26:08;11.30;99.90
33811;DHT22;20119;48.334;16.206;2023-03-24T05:28:36;11.40;99.90
33811;DHT22;20119;48.334;16.206;2023-03-24T05:31:03;11.40;99.90
33811;DHT22;20119;48.334;16.206;2023-03-24T05:33:33;11.40;99.90
33811;DHT22;20119;48.334;16.206;2023-03-24T05:36:01;11.40;99.90
33811;DHT22;20119;48.334;16.206;2023-03-24T05:38:29;11.40;99.90
33811;DHT22;20119;48.334;16.206;2023-03-24T05:40:57;11.50;99.90
33811;DHT22;20119;48.334;16.206;2023-03-24T05:43:25;11.50;99.90
33811;DHT22;20119;48.334;16.206;2023-03-24T05:45:53;11.50;99.90
33811;DHT22;20119;48.334;16.206;2023-03-24T05:48:21;11.60;99.90
33811;DHT22;20119;48.334;16.206;2023-03-24T05:50:52;11.60;99.90
33811;DHT22;20119;48.334;16.206;2023-03-24T05:53:20;11.70;99.90
33811;DHT22;20119;48.334;16.206;2023-03-24T05:55:48;11.70;99.90
33811;DHT22;20119;48.334;16.206;2023-03-24T05:58:18;11.80;99.90
33811;DHT22;20119;48.334;16.206;2023-03-24T06:00:47;11.80;99.90
33811;DHT22;20119;48.334;16.206;2023-03-24T06:03:15;11.80;99.90
33811;DHT22;20119;48.334;16.206;2023-03-24T06:05:43;11.80;99.90
33811;DHT22;20119;48.334;16.206;2023-03-24T06:08:13;11.90;99.90
33811;DHT22;20119;48.334;16.206;2023-03-24T06:10:44;11.90;99.90
33811;DHT22;20119;48.334;16.206;2023-03-24T06:13:18;12.00;99.90
33811;DHT22;20119;48.334;16.206;2023-03-24T06:15:47;12.10;99.90
33811;DHT22;20119;48.334;16.206;2023-03-24T06:18:15;12.00;99.90
33811;DHT22;20119;48.334;16.206;2023-03-24T06:20:46;11.90;99.90
33811;DHT22;20119;48.334;16.206;2023-03-24T06:23:18;12.00;99.90
33811;DHT22;20119;48.334;16.206;2023-03-24T06:25:49;12.00;99.90
33811;DHT22;20119;48.334;16.206;2023-03-24T06:28:17;12.10;99.90
33811;DHT22;20119;48.334;16.206;2023-03-24T06:30:45;12.20;99.90
33811;DHT22;20119;48.334;16.206;2023-03-24T06:33:15;12.30;99.90
33811;DHT22;20119;48.334;16.206;2023-03-24T06:35:42;12.50;99.90
33811;DHT22;20119;48.334;16.206;2023-03-24T06:38:09;12.60;99.90
33811;DHT22;20119;48.334;16.206;2023-03-24T06:40:39;12.70;99.90
33811;DHT22;20119;48.334;16.206;2023-03-24T06:43:07;12.70;99.90
33811;DHT22;20119;48.334;16.206;2023-03-24T06:45:34;12.80;99.90
33811;DHT22;20119;48.334;16.206;2023-03-24T06:48:04;12.80;99.90
33811;DHT22;20119;48.334;16.206;2023-03-24T06:50:31;13.00;99.90
33811;DHT22;20119;48.334;16.206;2023-03-24T06:53:00;13.20;99.90
33811;DHT22;20119;48.334;16.206;2023-03-24T06:55:27;13.40;99.90
33811;DHT22;20119;48.334;16.206;2023-03-24T06:57:56;13.50;99.90
33811;DHT22;20119;48.334;16.206;2023-03-24T07:00:25;13.60;99.90
33811;DHT22;20119;48.334;16.206;2023-03-24T07:02:54;13.80;99.90
33811;DHT22;20119;48.334;16.206;2023-03-24T07:05:22;13.90;99.90
33811;DHT22;20119;48.334;16.206;2023-03-24T07:07:50;14.00;99.90
33811;DHT22;20119;48.334;16.206;2023-03-24T07:10:17;14.10;99.90
33811;DHT22;20119;48.334;16.206;2023-03-24T07:12:46;14.40;99.90
33811;DHT22;20119;48.334;16.206;2023-03-24T07:15:15;14.70;99.90
33811;DHT22;20119;48.334;16.206;2023-03-24T07:17:43;15.00;99.90
33811;DHT22;20119;48.334;16.206;2023-03-24T07:20:10;15.10;99.90
33811;DHT22;20119;48.334;16.206;2023-03-24T07:22:39;15.10;99.90
33811;DHT22;20119;48.334;16.206;2023-03-24T07:25:07;15.40;99.90
33811;DHT22;20119;48.334;16.206;2023-03-24T07:27:34;15.20;99.90
33811;DHT22;20119;48.334;16.206;2023-03-24T07:30:03;15.20;99.90
33811;DHT22;20119;48.334;16.206;2023-03-24T07:32:32;15.60;99.90
33811;DHT22;20119;48.334;16.206;2023-03-24T07:35:05;15.40;99.90
33811;DHT22;20119;48.334;16.206;2023-03-24T07:37:33;15.50;99.90
33811;DHT22;20119;48.334;16.206;2023-03-24T07:40:01;15.60;99.90
33811;DHT22;20119;48.334;16.206;2023-03-24T07:42:30;15.50;99.90
33811;DHT22;20119;48.334;16.206;2023-03-24T07:44:59;15.60;99.90
33811;DHT22;20119;48.334;16.206;2023-03-24T07:47:26;15.60;99.90
33811;DHT22;20119;48.334;16.206;2023-03-24T07:49:56;15.50;99.90
33811;DHT22;20119;48.334;16.206;2023-03-24T07:52:23;15.40;99.90
33811;DHT22;20119;48.334;16.206;2023-03-24T07:54:52;15.00;99.90
33811;DHT22;20119;48.334;16.206;2023-03-24T07:57:21;15.10;99.90
33811;DHT22;20119;48.334;16.206;2023-03-24T07:59:49;15.30;99.90
33811;DHT22;20119;48.334;16.206;2023-03-24T08:02:17;15.20;99.90
33811;DHT22;20119;48.334;16.206;2023-03-24T08:04:45;15.30;99.90
33811;DHT22;20119;48.334;16.206;2023-03-24T08:07:19;15.50;99.90
33811;DHT22;20119;48.334;16.206;2023-03-24T08:09:49;15.70;99.90
33811;DHT22;20119;48.334;16.206;2023-03-24T08:12:16;15.60;99.90
33811;DHT22;20119;48.334;16.206;2023-03-24T08:14:43;15.60;99.90
33811;DHT22;20119;48.334;16.206;2023-03-24T08:17:11;15.70;99.90
33811;DHT22;20119;48.334;16.206;2023-03-24T08:19:38;15.80;99.90
33811;DHT22;20119;48.334;16.206;2023-03-24T08:22:06;15.90;99.90
33811;DHT22;20119;48.334;16.206;2023-03-24T08:24:35;15.80;99.90
33811;DHT22;20119;48.334;16.206;2023-03-24T08:27:02;15.90;99.90
33811;DHT22;20119;48.334;16.206;2023-03-24T08:29:30;16.30;99.90
33811;DHT22;20119;48.334;16.206;2023-03-24T08:31:59;16.30;99.90
33811;DHT22;20119;48.334;16.206;2023-03-24T08:34:26;16.60;99.90
33811;DHT22;20119;48.334;16.206;2023-03-24T08:36:54;16.90;99.90
33811;DHT22;20119;48.334;16.206;2023-03-24T08:39:22;17.30;99.90
33811;DHT22;20119;48.334;16.206;2023-03-24T08:41:51;17.30;99.90
33811;DHT22;20119;48.334;16.206;2023-03-24T08:44:19;17.80;99.90
33811;DHT22;20119;48.334;16.206;2023-03-24T08:46:47;18.00;99.90
33811;DHT22;20119;48.334;16.206;2023-03-24T08:49:14;18.50;99.90
33811;DHT22;20119;48.334;16.206;2023-03-24T08:51:45;18.30;99.90
33811;DHT22;20119;48.334;16.206;2023-03-24T08:54:12;18.60;99.90
33811;DHT22;20119;48.334;16.206;2023-03-24T08:56:40;18.40;99.90
33811;DHT22;20119;48.334;16.206;2023-03-24T08:59:10;18.80;99.90
33811;DHT22;20119;48.334;16.206;2023-03-24T09:01:38;18.30;99.90
33811;DHT22;20119;48.334;16.206;2023-03-24T09:04:08;18.60;99.90
33811;DHT22;20119;48.334;16.206;2023-03-24T09:06:36;18.30;99.90
33811;DHT22;20119;48.334;16.206;2023-03-24T09:09:04;18.60;99.90
33811;DHT22;20119;48.334;16.206;2023-03-24T09:11:32;19.20;99.90
33811;DHT22;20119;48.334;16.206;2023-03-24T09:14:00;19.40;99.90
33811;DHT22;20119;48.334;16.206;2023-03-24T09:16:29;19.00;99.90
33811;DHT22;20119;48.334;16.206;2023-03-24T09:18:59;19.40;99.90
33811;DHT22;20119;48.334;16.206;2023-03-24T09:21:26;19.90;99.90
33811;DHT22;20119;48.334;16.206;2023-03-24T09:23:54;19.80;99.90
33811;DHT22;20119;48.334;16.206;2023-03-24T09:26:24;19.40;99.90
33811;DHT22;20119;48.334;16.206;2023-03-24T09:28:51;18.80;99.90
33811;DHT22;20119;48.334;16.206;2023-03-24T09:31:18;18.90;99.90
33811;DHT22;20119;48.334;16.206;2023-03-24T09:33:47;19.10;99.90
33811;DHT22;20119;48.334;16.206;2023-03-24T09:36:17;19.70;99.90
33811;DHT22;20119;48.334;16.206;2023-03-24T09:38:46;19.70;99.90
33811;DHT22;20119;48.334;16.206;2023-03-24T09:41:16;19.90;99.90
33811;DHT22;20119;48.334;16.206;2023-03-24T09:43:49;20.30;99.90
33811;DHT22;20119;48.334;16.206;2023-03-24T09:46:25;20.80;99.90
33811;DHT22;20119;48.334;16.206;2023-03-24T09:48:55;20.50;99.90
33811;DHT22;20119;48.334;16.206;2023-03-24T09:51:24;20.30;99.90
33811;DHT22;20119;48.334;16.206;2023-03-24T09:53:56;20.20;99.90
33811;DHT22;20119;48.334;16.206;2023-03-24T09:56:24;20.40;99.90
33811;DHT22;20119;48.334;16.206;2023-03-24T09:59:01;20.60;99.90
33811;DHT22;20119;48.334;16.206;2023-03-24T10:01:29;20.80;99.90
33811;DHT22;20119;48.334;16.206;2023-03-24T10:03:59;21.00;99.90
33811;DHT22;20119;48.334;16.206;2023-03-24T10:06:29;21.50;99.90
33811;DHT22;20119;48.334;16.206;2023-03-24T10:09:01;21.70;99.90
33811;DHT22;20119;48.334;16.206;2023-03-24T10:11:34;21.70;99.90
33811;DHT22;20119;48.334;16.206;2023-03-24T10:14:12;21.50;99.90
33811;DHT22;20119;48.334;16.206;2023-03-24T10:16:47;21.40;99.90
33811;DHT22;20119;48.334;16.206;2023-03-24T10:19:26;20.80;99.90
33811;DHT22;20119;48.334;16.206;2023-03-24T10:22:03;20.80;99.90
33811;DHT22;20119;48.334;16.206;2023-03-24T10:24:35;21.00;99.90
33811;DHT22;20119;48.334;16.206;2023-03-24T10:27:08;21.20;99.90
33811;DHT22;20119;48.334;16.206;2023-03-24T10:29:39;20.60;99.90
33811;DHT22;20119;48.334;16.206;2023-03-24T10:32:14;19.30;99.90
33811;DHT22;20119;48.334;16.206;2023-03-24T10:34:47;19.40;99.90
33811;DHT22;20119;48.334;16.206;2023-03-24T10:37:15;19.70;99.90
33811;DHT22;20119;48.334;16.206;2023-03-24T10:39:43;19.70;99.90
33811;DHT22;20119;48.334;16.206;2023-03-24T10:42:14;19.80;99.90
33811;DHT22;20119;48.334;16.206;2023-03-24T10:44:43;19.90;99.90
33811;DHT22;20119;48.334;16.206;2023-03-24T10:47:12;20.00;99.90
33811;DHT22;20119;48.334;16.206;2023-03-24T10:49:52;20.10;99.90
33811;DHT22;20119;48.334;16.206;2023-03-24T10:52:21;19.80;99.90
33811;DHT22;20119;48.334;16.206;2023-03-24T10:54:54;19.80;99.90
33811;DHT22;20119;48.334;16.206;2023-03-24T10:57:22;20.00;99.90
33811;DHT22;20119;48.334;16.206;2023-03-24T10:59:53;20.10;99.90
33811;DHT22;20119;48.334;16.206;2023-03-24T11:02:24;20.10;99.90
33811;DHT22;20119;48.334;16.206;2023-03-24T11:04:56;20.10;99.90
33811;DHT22;20119;48.334;16.206;2023-03-24T11:07:29;20.30;99.90
33811;DHT22;20119;48.334;16.206;2023-03-24T11:10:03;20.40;99.90
33811;DHT22;20119;48.334;16.206;2023-03-24T11:12:34;20.10;99.90
33811;DHT22;20119;48.334;16.206;2023-03-24T11:15:14;20.20;99.90
33811;DHT22;20119;48.334;16.206;2023-03-24T11:17:43;20.00;99.90
33811;DHT22;20119;48.334;16.206;2023-03-24T11:20:20;20.10;99.90
33811;DHT22;20119;48.334;16.206;2023-03-24T11:22:59;20.20;99.90
33811;DHT22;20119;48.334;16.206;2023-03-24T11:25:28;20.20;99.90
33811;DHT22;20119;48.334;16.206;2023-03-24T11:27:58;20.20;99.90
33811;DHT22;20119;48.334;16.206;2023-03-24T11:30:28;20.00;99.90
33811;DHT22;20119;48.334;16.206;2023-03-24T11:32:59;20.10;99.90
33811;DHT22;20119;48.334;16.206;2023-03-24T11:35:28;20.50;99.90
33811;DHT22;20119;48.334;16.206;2023-03-24T11:37:56;20.60;99.90
33811;DHT22;20119;48.334;16.206;2023-03-24T11:40:24;20.70;99.90
33811;DHT22;20119;48.334;16.206;2023-03-24T11:42:56;21.00;99.90
33811;DHT22;20119;48.334;16.206;2023-03-24T11:45:29;20.80;99.90
33811;DHT22;20119;48.334;16.206;2023-03-24T11:48:03;20.40;99.90
33811;DHT22;20119;48.334;16.206;2023-03-24T11:50:37;20.60;99.90
33811;DHT22;20119;48.334;16.206;2023-03-24T11:53:09;20.90;99.90
33811;DHT22;20119;48.334;16.206;2023-03-24T11:55:42;21.10;99.90
33811;DHT22;20119;48.334;16.206;2023-03-24T11:58:19;21.60;99.90
33811;DHT22;20119;48.334;16.206;2023-03-24T12:01:11;21.90;99.90
33811;DHT22;20119;48.334;16.206;2023-03-24T12:04:01;21.70;99.90
33811;DHT22;20119;48.334;16.206;2023-03-24T12:06:41;22.00;99.90
33811;DHT22;20119;48.334;16.206;2023-03-24T12:09:21;21.60;99.90
33811;DHT22;20119;48.334;16.206;2023-03-24T12:12:01;21.90;99.90
33811;DHT22;20119;48.334;16.206;2023-03-24T12:14:39;22.10;99.90
33811;DHT22;20119;48.334;16.206;2023-03-24T12:17:13;22.30;99.90
33811;DHT22;20119;48.334;16.206;2023-03-24T12:20:01;22.30;99.90
33811;DHT22;20119;48.334;16.206;2023-03-24T12:22:45;22.00;99.90
33811;DHT22;20119;48.334;16.206;2023-03-24T12:28:26;21.40;99.90
33811;DHT22;20119;48.334;16.206;2023-03-24T12:31:07;21.30;99.90
33811;DHT22;20119;48.334;16.206;2023-03-24T12:33:46;21.90;99.90
33811;DHT22;20119;48.334;16.206;2023-03-24T12:36:33;22.00;99.90
33811;DHT22;20119;48.334;16.206;2023-03-24T12:39:08;21.80;99.90
33811;DHT22;20119;48.334;16.206;2023-03-24T12:41:52;22.00;99.90
33811;DHT22;20119;48.334;16.206;2023-03-24T12:50:33;22.40;99.90
33811;DHT22;20119;48.334;16.206;2023-03-24T12:53:14;22.70;99.90
33811;DHT22;20119;48.334;16.206;2023-03-24T12:55:51;22.60;99.90
33811;DHT22;20119;48.334;16.206;2023-03-24T12:58:24;23.00;99.90
33811;DHT22;20119;48.334;16.206;2023-03-24T13:01:00;22.90;99.90
33811;DHT22;20119;48.334;16.206;2023-03-24T13:03:34;23.00;99.90
33811;DHT22;20119;48.334;16.206;2023-03-24T13:06:13;22.70;99.90
33811;DHT22;20119;48.334;16.206;2023-03-24T13:08:48;22.80;99.90
33811;DHT22;20119;48.334;16.206;2023-03-24T13:11:29;22.90;99.90
33811;DHT22;20119;48.334;16.206;2023-03-24T13:14:00;23.10;99.90
33811;DHT22;20119;48.334;16.206;2023-03-24T13:16:31;22.80;99.90
33811;DHT22;20119;48.334;16.206;2023-03-24T13:19:01;22.20;99.90
33811;DHT22;20119;48.334;16.206;2023-03-24T13:21:28;22.30;99.90
33811;DHT22;20119;48.334;16.206;2023-03-24T13:24:04;22.30;99.90
33811;DHT22;20119;48.334;16.206;2023-03-24T13:26:38;22.10;99.90
33811;DHT22;20119;48.334;16.206;2023-03-24T13:29:24;22.20;99.90
33811;DHT22;20119;48.334;16.206;2023-03-24T13:31:56;22.50;99.90
33811;DHT22;20119;48.334;16.206;2023-03-24T13:34:29;22.40;99.90
33811;DHT22;20119;48.334;16.206;2023-03-24T13:37:01;22.60;99.90
33811;DHT22;20119;48.334;16.206;2023-03-24T13:39:29;22.50;99.90
33811;DHT22;20119;48.334;16.206;2023-03-24T13:42:01;22.70;99.90
33811;DHT22;20119;48.334;16.206;2023-03-24T13:44:36;23.00;99.90
33811;DHT22;20119;48.334;16.206;2023-03-24T13:47:09;22.90;99.90
33811;DHT22;20119;48.334;16.206;2023-03-24T13:49:38;22.60;99.90
33811;DHT22;20119;48.334;16.206;2023-03-24T13:52:20;22.40;99.90
33811;DHT22;20119;48.334;16.206;2023-03-24T13:54:50;22.40;99.90
33811;DHT22;20119;48.334;16.206;2023-03-24T13:57:21;22.20;99.90
33811;DHT22;20119;48.334;16.206;2023-03-24T14:00:01;22.30;99.90
33811;DHT22;20119;48.334;16.206;2023-03-24T14:02:44;22.40;99.90
33811;DHT22;20119;48.334;16.206;2023-03-24T14:05:32;22.40;99.90
33811;DHT22;20119;48.334;16.206;2023-03-24T14:08:12;22.50;99.90
33811;DHT22;20119;48.334;16.206;2023-03-24T14:10:45;22.30;99.90
33811;DHT22;20119;48.334;16.206;2023-03-24T14:13:35;22.10;99.90
33811;DHT22;20119;48.334;16.206;2023-03-24T14:16:26;22.30;99.90
33811;DHT22;20119;48.334;16.206;2023-03-24T14:19:18;22.20;99.90
33811;DHT22;20119;48.334;16.206;2023-03-24T14:21:52;21.80;99.90
33811;DHT22;20119;48.334;16.206;2023-03-24T14:24:24;21.40;99.90
33811;DHT22;20119;48.334;16.206;2023-03-24T14:26:52;21.30;99.90
33811;DHT22;20119;48.334;16.206;2023-03-24T14:29:36;21.20;99.90
33811;DHT22;20119;48.334;16.206;2023-03-24T14:32:05;21.20;99.90
33811;DHT22;20119;48.334;16.206;2023-03-24T14:34:33;21.20;99.90
33811;DHT22;20119;48.334;16.206;2023-03-24T14:37:03;20.80;99.90
33811;DHT22;20119;48.334;16.206;2023-03-24T14:39:38;20.70;99.90
33811;DHT22;20119;48.334;16.206;2023-03-24T14:45:38;20.10;99.90
33811;DHT22;20119;48.334;16.206;2023-03-24T14:48:20;19.90;99.90
33811;DHT22;20119;48.334;16.206;2023-03-24T14:50:52;19.90;99.90
33811;DHT22;20119;48.334;16.206;2023-03-24T14:53:22;19.80;99.90
33811;DHT22;20119;48.334;16.206;2023-03-24T14:55:52;19.60;99.90
33811;DHT22;20119;48.334;16.206;2023-03-24T14:58:22;19.50;99.90
33811;DHT22;20119;48.334;16.206;2023-03-24T15:00:56;19.20;99.90
33811;DHT22;20119;48.334;16.206;2023-03-24T15:03:30;19.30;99.90
33811;DHT22;20119;48.334;16.206;2023-03-24T15:06:10;19.20;99.90
33811;DHT22;20119;48.334;16.206;2023-03-24T15:08:42;19.20;99.90
33811;DHT22;20119;48.334;16.206;2023-03-24T15:11:10;19.10;99.90
33811;DHT22;20119;48.334;16.206;2023-03-24T15:13:39;19.20;99.90
33811;DHT22;20119;48.334;16.206;2023-03-24T15:16:18;19.10;99.90
33811;DHT22;20119;48.334;16.206;2023-03-24T15:18:49;19.00;99.90
33811;DHT22;20119;48.334;16.206;2023-03-24T15:21:23;18.90;99.90
33811;DHT22;20119;48.334;16.206;2023-03-24T15:23:51;18.60;99.90
33811;DHT22;20119;48.334;16.206;2023-03-24T15:26:19;18.20;99.90
33811;DHT22;20119;48.334;16.206;2023-03-24T15:28:59;17.20;99.90
33811;DHT22;20119;48.334;16.206;2023-03-24T15:31:29;17.00;99.90
33811;DHT22;20119;48.334;16.206;2023-03-24T15:34:05;16.60;99.90
33811;DHT22;20119;48.334;16.206;2023-03-24T15:36:39;16.30;99.90
33811;DHT22;20119;48.334;16.206;2023-03-24T15:39:18;16.20;99.90
33811;DHT22;20119;48.334;16.206;2023-03-24T15:41:49;16.20;99.90
33811;DHT22;20119;48.334;16.206;2023-03-24T15:44:23;16.10;99.90
33811;DHT22;20119;48.334;16.206;2023-03-24T15:46:55;16.00;99.90
33811;DHT22;20119;48.334;16.206;2023-03-24T15:49:26;16.00;99.90
33811;DHT22;20119;48.334;16.206;2023-03-24T15:51:57;15.90;99.90
33811;DHT22;20119;48.334;16.206;2023-03-24T15:54:28;15.90;99.90
33811;DHT22;20119;48.334;16.206;2023-03-24T15:57:02;15.80;99.90
33811;DHT22;20119;48.334;16.206;2023-03-24T15:59:36;15.60;99.90
33811;DHT22;20119;48.334;16.206;2023-03-24T16:02:16;15.70;99.90
33811;DHT22;20119;48.334;16.206;2023-03-24T16:04:46;15.50;99.90
33811;DHT22;20119;48.334;16.206;2023-03-24T16:07:22;15.50;99.90